KSNAKMMH [001]

Guest
Details From KSNA - Orange County - John Wayne
To KMMH - Mammoth Yosemite
Flight Number 001
Tags Real Commercial Decoded
Created
Modified
Stats Distance 242 nm / 449 km
Max Altitude 0 ft / 0 m
Waypoints 2
Social Downloads 4
Likes 0
Share VATSIM

Download

Looking for another format? Having issues loading an existing format? Contact us
Advertisement - Login to hide

Notes

Decoded

Route

KSNA KMMH

ID Type Via Altitude Latitude Longitude Leg Dist Tot Dist Heading (true) Name
O KSNA APT - 0 ft / 0 m 33.67399˚ -117.86805˚ - 0 nm - -
O KMMH APT - 0 ft / 0 m 37.62717˚ -118.85016˚ 242 nm 242 nm 349° / 348° -

Altitude Profile

Advertisement - Login to hide

Weather


0- 5 10 15 20 25 30 35+ Temperature / ° C

Clouds and Precipitation
Forecast for 2018-05-24 00:00 UTC. Updated 4 hours ago

Ground ~20,000 ft ~40,000 ft Winds

KSNA

Details ICAO KSNA (SNA)
Name Orange County - John Wayne
Region United States
Timezone America/Los_Angeles (UTC-7.0)
Stats Elevation 56 ft / 17 m (AMSL)
Location 33.676112° -117.867636°
Runways 2
Magnetic Variation 11.807° E

METAR

KSNA 240253Z 22006KT 10SM FEW028 17/13 A2997 RMK AO2 SLP148 T01670128 53009

Decode

TAF

TAF KSNA 232335Z 2400/2424 21008KT P6SM BKN025 FM240100 VRB04KT P6SM SCT015 BKN025 FM240600 VRB04KT P6SM BKN015 OVC025 FM241800 VRB04KT P6SM BKN025 FM242100 21008KT P6SM SCT025

Decode

Departure Runways

ID Width Length Bearing (true) Bearing (mag) Surface Threshold Offset Overrun Length
01L 151 ft / 46 m 5,711 ft / 1,741 m 27.81° 16.00° Asphalt 0 ft / 0 m 1,050 ft / 320 m
01R 75 ft / 23 m 2,892 ft / 881 m 27.80° 15.99° Asphalt 0 ft / 0 m 400 ft / 122 m
19L 75 ft / 23 m 2,892 ft / 881 m 207.80° 195.99° Asphalt 0 ft / 0 m 151 ft / 46 m
19R 151 ft / 46 m 5,711 ft / 1,741 m 207.81° 196.00° Asphalt 0 ft / 0 m 194 ft / 59 m

KMMH

Details ICAO KMMH (MMH)
Name Mammoth Yosemite
Region United States
Timezone America/Los_Angeles (UTC-7.0)
Stats Elevation 7,128 ft / 2,173 m (AMSL)
Location 37.624049° -118.838737°
Runways 1
Magnetic Variation 12.781° E

METAR

KMMH 240315Z AUTO 29006KT 10SM CLR 13/04 A3010 RMK AO2 T01280044

Decode

TAF

TAF KMMH 232320Z 2400/2424 25010G17KT P6SM FEW070 SCT090 FM240300 29005KT P6SM FEW090 FM241700 14009KT P6SM FEW060 FM242200 16010G17KT P6SM VCTS SCT070CB SCT180

Decode

Destination Runways

ID Width Length Bearing (true) Bearing (mag) Surface Threshold Offset Overrun Length
09 98 ft / 30 m 6,987 ft / 2,130 m 109.02° 96.24° Asphalt 0 ft / 0 m 2,999 ft / 914 m
27 98 ft / 30 m 6,987 ft / 2,130 m 289.03° 276.25° Asphalt 0 ft / 0 m 0 ft / 0 m

Popular Alternatives